sensor_id;sensor_type;location;lat;lon;timestamp;P1;durP1;ratioP1;P2;durP2;ratioP2
31760;SDS011;18335;51.486;7.562;2023-04-16T00:01:02;27.02;;;16.63;;
31760;SDS011;18335;51.486;7.562;2023-04-16T00:03:29;26.83;;;12.82;;
31760;SDS011;18335;51.486;7.562;2023-04-16T00:05:57;31.35;;;15.63;;
31760;SDS011;18335;51.486;7.562;2023-04-16T00:08:23;32.10;;;15.18;;
31760;SDS011;18335;51.486;7.562;2023-04-16T00:10:51;32.38;;;15.98;;
31760;SDS011;18335;51.486;7.562;2023-04-16T00:13:18;25.65;;;14.07;;
31760;SDS011;18335;51.486;7.562;2023-04-16T00:15:44;28.02;;;14.15;;
31760;SDS011;18335;51.486;7.562;2023-04-16T00:18:11;27.27;;;14.63;;
31760;SDS011;18335;51.486;7.562;2023-04-16T00:20:40;26.52;;;14.50;;
31760;SDS011;18335;51.486;7.562;2023-04-16T00:23:08;27.05;;;14.98;;
31760;SDS011;18335;51.486;7.562;2023-04-16T00:25:35;32.25;;;17.23;;
31760;SDS011;18335;51.486;7.562;2023-04-16T00:28:02;33.38;;;18.52;;
31760;SDS011;18335;51.486;7.562;2023-04-16T00:30:30;29.98;;;17.58;;
31760;SDS011;18335;51.486;7.562;2023-04-16T00:32:57;29.60;;;16.40;;
31760;SDS011;18335;51.486;7.562;2023-04-16T00:35:24;30.60;;;16.80;;
31760;SDS011;18335;51.486;7.562;2023-04-16T00:37:51;32.80;;;17.33;;
31760;SDS011;18335;51.486;7.562;2023-04-16T00:40:19;38.60;;;19.77;;
31760;SDS011;18335;51.486;7.562;2023-04-16T00:42:46;40.67;;;22.45;;
31760;SDS011;18335;51.486;7.562;2023-04-16T00:45:13;36.58;;;21.85;;
31760;SDS011;18335;51.486;7.562;2023-04-16T00:47:40;42.40;;;22.65;;
31760;SDS011;18335;51.486;7.562;2023-04-16T00:50:07;38.90;;;22.58;;
31760;SDS011;18335;51.486;7.562;2023-04-16T00:52:34;37.50;;;21.30;;
31760;SDS011;18335;51.486;7.562;2023-04-16T00:55:01;44.58;;;23.38;;
31760;SDS011;18335;51.486;7.562;2023-04-16T00:57:29;49.60;;;22.90;;
31760;SDS011;18335;51.486;7.562;2023-04-16T00:59:56;45.75;;;24.70;;
31760;SDS011;18335;51.486;7.562;2023-04-16T01:02:23;42.53;;;22.90;;
31760;SDS011;18335;51.486;7.562;2023-04-16T01:04:50;40.47;;;22.45;;
31760;SDS011;18335;51.486;7.562;2023-04-16T01:07:17;41.47;;;22.55;;
31760;SDS011;18335;51.486;7.562;2023-04-16T01:09:44;44.35;;;23.83;;
31760;SDS011;18335;51.486;7.562;2023-04-16T01:12:11;41.70;;;22.58;;
31760;SDS011;18335;51.486;7.562;2023-04-16T01:14:39;45.80;;;24.63;;
31760;SDS011;18335;51.486;7.562;2023-04-16T01:17:06;45.30;;;24.67;;
31760;SDS011;18335;51.486;7.562;2023-04-16T01:19:33;44.45;;;23.95;;
31760;SDS011;18335;51.486;7.562;2023-04-16T01:22:02;43.15;;;25.95;;
31760;SDS011;18335;51.486;7.562;2023-04-16T01:24:30;51.75;;;26.15;;
31760;SDS011;18335;51.486;7.562;2023-04-16T01:26:57;43.05;;;25.55;;
31760;SDS011;18335;51.486;7.562;2023-04-16T01:29:24;51.35;;;26.67;;
31760;SDS011;18335;51.486;7.562;2023-04-16T01:31:54;50.40;;;28.60;;
31760;SDS011;18335;51.486;7.562;2023-04-16T01:34:24;53.03;;;31.00;;
31760;SDS011;18335;51.486;7.562;2023-04-16T01:36:51;53.28;;;30.92;;
31760;SDS011;18335;51.486;7.562;2023-04-16T01:39:19;60.20;;;32.92;;
31760;SDS011;18335;51.486;7.562;2023-04-16T01:41:46;59.83;;;31.92;;
31760;SDS011;18335;51.486;7.562;2023-04-16T01:44:13;53.15;;;29.42;;
31760;SDS011;18335;51.486;7.562;2023-04-16T01:46:41;52.70;;;29.38;;
31760;SDS011;18335;51.486;7.562;2023-04-16T01:49:08;48.97;;;28.45;;
31760;SDS011;18335;51.486;7.562;2023-04-16T01:51:36;49.08;;;29.67;;
31760;SDS011;18335;51.486;7.562;2023-04-16T01:54:02;43.03;;;27.33;;
31760;SDS011;18335;51.486;7.562;2023-04-16T01:56:31;46.35;;;27.23;;
31760;SDS011;18335;51.486;7.562;2023-04-16T01:58:58;44.50;;;24.05;;
31760;SDS011;18335;51.486;7.562;2023-04-16T02:01:29;47.05;;;27.40;;
31760;SDS011;18335;51.486;7.562;2023-04-16T02:03:56;51.58;;;27.67;;
31760;SDS011;18335;51.486;7.562;2023-04-16T02:06:23;48.38;;;29.20;;
31760;SDS011;18335;51.486;7.562;2023-04-16T02:08:50;50.50;;;27.33;;
31760;SDS011;18335;51.486;7.562;2023-04-16T02:11:17;50.60;;;27.52;;
31760;SDS011;18335;51.486;7.562;2023-04-16T02:13:46;56.00;;;29.45;;
31760;SDS011;18335;51.486;7.562;2023-04-16T02:16:14;54.65;;;29.25;;
31760;SDS011;18335;51.486;7.562;2023-04-16T02:18:49;56.58;;;28.73;;
31760;SDS011;18335;51.486;7.562;2023-04-16T02:21:17;55.30;;;28.70;;
31760;SDS011;18335;51.486;7.562;2023-04-16T02:23:45;48.60;;;27.17;;
31760;SDS011;18335;51.486;7.562;2023-04-16T02:26:17;48.10;;;26.27;;
31760;SDS011;18335;51.486;7.562;2023-04-16T02:28:46;40.55;;;21.67;;
31760;SDS011;18335;51.486;7.562;2023-04-16T02:31:13;45.28;;;21.95;;
31760;SDS011;18335;51.486;7.562;2023-04-16T02:33:43;38.42;;;19.58;;
31760;SDS011;18335;51.486;7.562;2023-04-16T02:36:10;31.80;;;17.52;;
31760;SDS011;18335;51.486;7.562;2023-04-16T02:38:37;32.38;;;17.83;;
31760;SDS011;18335;51.486;7.562;2023-04-16T02:41:05;32.83;;;18.08;;
31760;SDS011;18335;51.486;7.562;2023-04-16T02:43:32;32.35;;;18.70;;
31760;SDS011;18335;51.486;7.562;2023-04-16T02:46:01;31.25;;;18.30;;
31760;SDS011;18335;51.486;7.562;2023-04-16T02:48:28;38.97;;;19.83;;
31760;SDS011;18335;51.486;7.562;2023-04-16T02:50:55;37.47;;;19.65;;
31760;SDS011;18335;51.486;7.562;2023-04-16T02:53:22;36.00;;;21.23;;
31760;SDS011;18335;51.486;7.562;2023-04-16T02:55:49;37.70;;;20.95;;
31760;SDS011;18335;51.486;7.562;2023-04-16T02:58:17;35.13;;;18.73;;
31760;SDS011;18335;51.486;7.562;2023-04-16T03:00:44;37.95;;;20.23;;
31760;SDS011;18335;51.486;7.562;2023-04-16T03:03:12;37.72;;;21.48;;
31760;SDS011;18335;51.486;7.562;2023-04-16T03:05:40;43.17;;;22.67;;
31760;SDS011;18335;51.486;7.562;2023-04-16T03:08:07;41.85;;;22.75;;
31760;SDS011;18335;51.486;7.562;2023-04-16T03:10:35;40.72;;;23.10;;
31760;SDS011;18335;51.486;7.562;2023-04-16T03:13:01;39.53;;;20.38;;
31760;SDS011;18335;51.486;7.562;2023-04-16T03:15:29;39.20;;;21.90;;
31760;SDS011;18335;51.486;7.562;2023-04-16T03:17:56;37.38;;;22.10;;
31760;SDS011;18335;51.486;7.562;2023-04-16T03:20:24;43.90;;;22.02;;
31760;SDS011;18335;51.486;7.562;2023-04-16T03:22:52;40.85;;;22.45;;
31760;SDS011;18335;51.486;7.562;2023-04-16T03:25:19;45.33;;;22.33;;
31760;SDS011;18335;51.486;7.562;2023-04-16T03:27:45;40.75;;;21.13;;
31760;SDS011;18335;51.486;7.562;2023-04-16T03:30:13;39.13;;;22.58;;
31760;SDS011;18335;51.486;7.562;2023-04-16T03:32:42;36.95;;;20.38;;
31760;SDS011;18335;51.486;7.562;2023-04-16T03:35:09;38.10;;;21.42;;
31760;SDS011;18335;51.486;7.562;2023-04-16T03:37:38;39.90;;;22.58;;
31760;SDS011;18335;51.486;7.562;2023-04-16T03:40:05;34.25;;;21.55;;
31760;SDS011;18335;51.486;7.562;2023-04-16T03:42:33;33.42;;;20.33;;
31760;SDS011;18335;51.486;7.562;2023-04-16T03:45:01;35.50;;;19.85;;
31760;SDS011;18335;51.486;7.562;2023-04-16T03:47:28;33.45;;;20.40;;
31760;SDS011;18335;51.486;7.562;2023-04-16T03:49:59;35.10;;;19.35;;
31760;SDS011;18335;51.486;7.562;2023-04-16T03:52:26;36.47;;;20.35;;
31760;SDS011;18335;51.486;7.562;2023-04-16T03:54:55;29.88;;;19.92;;
31760;SDS011;18335;51.486;7.562;2023-04-16T03:57:25;34.17;;;20.08;;
31760;SDS011;18335;51.486;7.562;2023-04-16T03:59:56;37.75;;;21.20;;
31760;SDS011;18335;51.486;7.562;2023-04-16T04:02:25;36.15;;;22.80;;
31760;SDS011;18335;51.486;7.562;2023-04-16T04:04:52;37.58;;;21.55;;
31760;SDS011;18335;51.486;7.562;2023-04-16T04:07:18;38.13;;;21.67;;
31760;SDS011;18335;51.486;7.562;2023-04-16T04:09:45;38.97;;;22.15;;
31760;SDS011;18335;51.486;7.562;2023-04-16T04:12:14;40.97;;;22.38;;
31760;SDS011;18335;51.486;7.562;2023-04-16T04:14:42;37.50;;;22.02;;
31760;SDS011;18335;51.486;7.562;2023-04-16T04:17:09;41.00;;;23.23;;
31760;SDS011;18335;51.486;7.562;2023-04-16T04:19:36;37.72;;;21.63;;
31760;SDS011;18335;51.486;7.562;2023-04-16T04:22:03;43.25;;;23.02;;
31760;SDS011;18335;51.486;7.562;2023-04-16T04:24:29;44.08;;;23.85;;
31760;SDS011;18335;51.486;7.562;2023-04-16T04:26:57;42.67;;;24.02;;
31760;SDS011;18335;51.486;7.562;2023-04-16T04:29:25;46.83;;;24.15;;
31760;SDS011;18335;51.486;7.562;2023-04-16T04:31:52;46.03;;;23.50;;
31760;SDS011;18335;51.486;7.562;2023-04-16T04:34:20;42.20;;;23.75;;
31760;SDS011;18335;51.486;7.562;2023-04-16T04:36:47;45.63;;;23.67;;
31760;SDS011;18335;51.486;7.562;2023-04-16T04:39:14;48.75;;;25.15;;
31760;SDS011;18335;51.486;7.562;2023-04-16T04:41:42;43.67;;;24.92;;
31760;SDS011;18335;51.486;7.562;2023-04-16T04:44:09;47.20;;;25.75;;
31760;SDS011;18335;51.486;7.562;2023-04-16T04:46:37;42.70;;;24.65;;
31760;SDS011;18335;51.486;7.562;2023-04-16T04:49:04;50.53;;;26.10;;
31760;SDS011;18335;51.486;7.562;2023-04-16T04:51:31;48.80;;;25.73;;
31760;SDS011;18335;51.486;7.562;2023-04-16T04:53:58;46.47;;;26.83;;
31760;SDS011;18335;51.486;7.562;2023-04-16T04:56:25;44.80;;;25.30;;
31760;SDS011;18335;51.486;7.562;2023-04-16T04:58:53;47.08;;;27.27;;
31760;SDS011;18335;51.486;7.562;2023-04-16T05:01:20;49.30;;;25.85;;
31760;SDS011;18335;51.486;7.562;2023-04-16T05:03:48;42.90;;;25.45;;
31760;SDS011;18335;51.486;7.562;2023-04-16T05:06:15;47.03;;;24.70;;
31760;SDS011;18335;51.486;7.562;2023-04-16T05:08:41;41.75;;;26.33;;
31760;SDS011;18335;51.486;7.562;2023-04-16T05:11:08;48.00;;;28.25;;
31760;SDS011;18335;51.486;7.562;2023-04-16T05:13:35;43.28;;;26.38;;
31760;SDS011;18335;51.486;7.562;2023-04-16T05:16:01;48.38;;;27.10;;
31760;SDS011;18335;51.486;7.562;2023-04-16T05:18:28;48.17;;;26.55;;
31760;SDS011;18335;51.486;7.562;2023-04-16T05:20:58;47.83;;;25.40;;
31760;SDS011;18335;51.486;7.562;2023-04-16T05:23:24;49.17;;;27.08;;
31760;SDS011;18335;51.486;7.562;2023-04-16T05:25:51;51.90;;;27.33;;
31760;SDS011;18335;51.486;7.562;2023-04-16T05:28:18;54.63;;;30.02;;
31760;SDS011;18335;51.486;7.562;2023-04-16T05:30:44;49.80;;;28.40;;
31760;SDS011;18335;51.486;7.562;2023-04-16T05:33:11;47.60;;;29.95;;
31760;SDS011;18335;51.486;7.562;2023-04-16T05:35:38;47.17;;;28.60;;
31760;SDS011;18335;51.486;7.562;2023-04-16T05:38:06;52.60;;;29.20;;
31760;SDS011;18335;51.486;7.562;2023-04-16T05:40:33;47.65;;;29.15;;
31760;SDS011;18335;51.486;7.562;2023-04-16T05:42:59;54.65;;;30.38;;
31760;SDS011;18335;51.486;7.562;2023-04-16T05:45:26;51.15;;;28.08;;
31760;SDS011;18335;51.486;7.562;2023-04-16T05:47:53;50.28;;;29.55;;
31760;SDS011;18335;51.486;7.562;2023-04-16T05:50:19;51.67;;;28.75;;
31760;SDS011;18335;51.486;7.562;2023-04-16T05:52:46;47.88;;;28.83;;
31760;SDS011;18335;51.486;7.562;2023-04-16T05:55:14;49.50;;;27.45;;
31760;SDS011;18335;51.486;7.562;2023-04-16T05:57:41;50.30;;;29.55;;
31760;SDS011;18335;51.486;7.562;2023-04-16T06:00:08;45.22;;;27.75;;
31760;SDS011;18335;51.486;7.562;2023-04-16T06:02:38;54.50;;;27.83;;
31760;SDS011;18335;51.486;7.562;2023-04-16T06:05:05;48.25;;;27.58;;
31760;SDS011;18335;51.486;7.562;2023-04-16T06:07:32;48.35;;;27.95;;
31760;SDS011;18335;51.486;7.562;2023-04-16T06:09:59;48.38;;;28.08;;
31760;SDS011;18335;51.486;7.562;2023-04-16T06:12:27;52.78;;;27.90;;
31760;SDS011;18335;51.486;7.562;2023-04-16T06:14:53;42.30;;;28.05;;
31760;SDS011;18335;51.486;7.562;2023-04-16T06:17:20;53.15;;;30.63;;
31760;SDS011;18335;51.486;7.562;2023-04-16T06:19:47;44.78;;;27.20;;
31760;SDS011;18335;51.486;7.562;2023-04-16T06:22:14;51.92;;;28.08;;
31760;SDS011;18335;51.486;7.562;2023-04-16T06:24:41;53.47;;;29.00;;
31760;SDS011;18335;51.486;7.562;2023-04-16T06:27:07;53.42;;;29.25;;
31760;SDS011;18335;51.486;7.562;2023-04-16T06:29:36;47.90;;;28.67;;
31760;SDS011;18335;51.486;7.562;2023-04-16T06:32:02;59.22;;;31.75;;
31760;SDS011;18335;51.486;7.562;2023-04-16T06:34:30;51.58;;;30.50;;
31760;SDS011;18335;51.486;7.562;2023-04-16T06:36:56;48.40;;;31.02;;
31760;SDS011;18335;51.486;7.562;2023-04-16T06:39:23;45.58;;;28.65;;
31760;SDS011;18335;51.486;7.562;2023-04-16T06:41:50;54.10;;;31.35;;
31760;SDS011;18335;51.486;7.562;2023-04-16T06:44:16;53.20;;;29.13;;
31760;SDS011;18335;51.486;7.562;2023-04-16T06:46:45;48.33;;;30.33;;
31760;SDS011;18335;51.486;7.562;2023-04-16T06:49:12;49.00;;;30.00;;
31760;SDS011;18335;51.486;7.562;2023-04-16T06:51:38;47.35;;;29.45;;
31760;SDS011;18335;51.486;7.562;2023-04-16T06:54:05;50.63;;;27.70;;
31760;SDS011;18335;51.486;7.562;2023-04-16T06:56:32;51.28;;;29.73;;
31760;SDS011;18335;51.486;7.562;2023-04-16T06:58:59;46.88;;;31.17;;
31760;SDS011;18335;51.486;7.562;2023-04-16T07:01:26;48.80;;;28.67;;
31760;SDS011;18335;51.486;7.562;2023-04-16T07:03:56;51.15;;;29.67;;
31760;SDS011;18335;51.486;7.562;2023-04-16T07:06:23;42.95;;;26.88;;
31760;SDS011;18335;51.486;7.562;2023-04-16T07:08:51;41.20;;;26.60;;
31760;SDS011;18335;51.486;7.562;2023-04-16T07:11:18;46.28;;;28.00;;
31760;SDS011;18335;51.486;7.562;2023-04-16T07:13:45;48.92;;;28.65;;
31760;SDS011;18335;51.486;7.562;2023-04-16T07:16:11;45.85;;;29.65;;
31760;SDS011;18335;51.486;7.562;2023-04-16T07:18:38;45.22;;;29.13;;
31760;SDS011;18335;51.486;7.562;2023-04-16T07:21:06;44.42;;;28.17;;
31760;SDS011;18335;51.486;7.562;2023-04-16T07:23:33;45.03;;;27.83;;
31760;SDS011;18335;51.486;7.562;2023-04-16T07:26:00;41.60;;;26.67;;
31760;SDS011;18335;51.486;7.562;2023-04-16T07:28:27;39.92;;;27.95;;
31760;SDS011;18335;51.486;7.562;2023-04-16T07:30:53;37.65;;;25.75;;
31760;SDS011;18335;51.486;7.562;2023-04-16T07:33:20;44.70;;;26.85;;
31760;SDS011;18335;51.486;7.562;2023-04-16T07:35:47;42.42;;;27.58;;
31760;SDS011;18335;51.486;7.562;2023-04-16T07:38:15;44.25;;;27.10;;
31760;SDS011;18335;51.486;7.562;2023-04-16T07:40:42;43.45;;;25.95;;
31760;SDS011;18335;51.486;7.562;2023-04-16T07:43:09;40.72;;;26.35;;
31760;SDS011;18335;51.486;7.562;2023-04-16T07:45:36;41.67;;;25.75;;
31760;SDS011;18335;51.486;7.562;2023-04-16T07:48:03;41.72;;;27.67;;
31760;SDS011;18335;51.486;7.562;2023-04-16T07:50:30;46.28;;;29.65;;
31760;SDS011;18335;51.486;7.562;2023-04-16T07:52:57;44.75;;;28.50;;
31760;SDS011;18335;51.486;7.562;2023-04-16T07:55:25;46.55;;;30.67;;
31760;SDS011;18335;51.486;7.562;2023-04-16T07:57:52;46.00;;;29.05;;
31760;SDS011;18335;51.486;7.562;2023-04-16T08:00:19;44.00;;;29.13;;
31760;SDS011;18335;51.486;7.562;2023-04-16T08:02:45;47.25;;;30.05;;
31760;SDS011;18335;51.486;7.562;2023-04-16T08:05:12;45.28;;;30.52;;
31760;SDS011;18335;51.486;7.562;2023-04-16T08:07:39;48.83;;;28.67;;
31760;SDS011;18335;51.486;7.562;2023-04-16T08:10:07;41.92;;;28.90;;
31760;SDS011;18335;51.486;7.562;2023-04-16T08:12:35;44.17;;;30.25;;
31760;SDS011;18335;51.486;7.562;2023-04-16T08:15:02;43.90;;;29.02;;
31760;SDS011;18335;51.486;7.562;2023-04-16T08:17:30;41.55;;;29.48;;
31760;SDS011;18335;51.486;7.562;2023-04-16T08:19:58;44.67;;;30.08;;
31760;SDS011;18335;51.486;7.562;2023-04-16T08:22:26;45.80;;;28.75;;
31760;SDS011;18335;51.486;7.562;2023-04-16T08:24:53;42.63;;;28.92;;
31760;SDS011;18335;51.486;7.562;2023-04-16T08:27:20;43.60;;;27.73;;
31760;SDS011;18335;51.486;7.562;2023-04-16T08:29:48;46.67;;;29.92;;
31760;SDS011;18335;51.486;7.562;2023-04-16T08:32:15;44.30;;;28.98;;
31760;SDS011;18335;51.486;7.562;2023-04-16T08:34:41;45.05;;;29.55;;
31760;SDS011;18335;51.486;7.562;2023-04-16T08:37:08;41.40;;;28.55;;
31760;SDS011;18335;51.486;7.562;2023-04-16T08:39:35;44.75;;;28.60;;
31760;SDS011;18335;51.486;7.562;2023-04-16T08:42:03;45.92;;;29.75;;
31760;SDS011;18335;51.486;7.562;2023-04-16T08:44:32;46.67;;;31.90;;
31760;SDS011;18335;51.486;7.562;2023-04-16T08:47:01;48.70;;;31.33;;
31760;SDS011;18335;51.486;7.562;2023-04-16T08:49:28;47.50;;;30.73;;
31760;SDS011;18335;51.486;7.562;2023-04-16T08:52:00;45.20;;;30.08;;
31760;SDS011;18335;51.486;7.562;2023-04-16T08:54:33;50.03;;;35.78;;
31760;SDS011;18335;51.486;7.562;2023-04-16T08:57:05;47.50;;;29.88;;
31760;SDS011;18335;51.486;7.562;2023-04-16T08:59:35;40.33;;;29.08;;
31760;SDS011;18335;51.486;7.562;2023-04-16T09:02:05;47.17;;;28.83;;
31760;SDS011;18335;51.486;7.562;2023-04-16T09:04:32;41.50;;;29.00;;
31760;SDS011;18335;51.486;7.562;2023-04-16T09:07:00;42.13;;;28.63;;
31760;SDS011;18335;51.486;7.562;2023-04-16T09:09:29;42.50;;;29.42;;
31760;SDS011;18335;51.486;7.562;2023-04-16T09:11:57;45.95;;;27.98;;
31760;SDS011;18335;51.486;7.562;2023-04-16T09:14:23;40.85;;;27.38;;
31760;SDS011;18335;51.486;7.562;2023-04-16T09:16:51;40.20;;;28.73;;
31760;SDS011;18335;51.486;7.562;2023-04-16T09:19:21;39.60;;;27.70;;
31760;SDS011;18335;51.486;7.562;2023-04-16T09:21:48;45.97;;;29.08;;
31760;SDS011;18335;51.486;7.562;2023-04-16T09:24:15;41.28;;;29.95;;
31760;SDS011;18335;51.486;7.562;2023-04-16T09:26:42;47.15;;;28.90;;
31760;SDS011;18335;51.486;7.562;2023-04-16T09:29:09;40.92;;;28.98;;
31760;SDS011;18335;51.486;7.562;2023-04-16T09:31:36;42.00;;;29.45;;
31760;SDS011;18335;51.486;7.562;2023-04-16T09:34:03;43.47;;;27.50;;
31760;SDS011;18335;51.486;7.562;2023-04-16T09:36:34;41.72;;;28.08;;
31760;SDS011;18335;51.486;7.562;2023-04-16T09:39:02;38.33;;;26.35;;
31760;SDS011;18335;51.486;7.562;2023-04-16T09:41:29;43.70;;;29.30;;
31760;SDS011;18335;51.486;7.562;2023-04-16T09:44:00;40.17;;;25.10;;
31760;SDS011;18335;51.486;7.562;2023-04-16T09:46:28;39.58;;;26.58;;
31760;SDS011;18335;51.486;7.562;2023-04-16T09:48:56;40.10;;;26.40;;
31760;SDS011;18335;51.486;7.562;2023-04-16T09:51:23;38.20;;;25.48;;
31760;SDS011;18335;51.486;7.562;2023-04-16T09:53:52;37.40;;;24.75;;
31760;SDS011;18335;51.486;7.562;2023-04-16T09:56:22;40.25;;;25.50;;
31760;SDS011;18335;51.486;7.562;2023-04-16T09:58:52;39.55;;;25.83;;
31760;SDS011;18335;51.486;7.562;2023-04-16T10:01:22;37.53;;;25.80;;
31760;SDS011;18335;51.486;7.562;2023-04-16T10:03:49;37.35;;;25.67;;
31760;SDS011;18335;51.486;7.562;2023-04-16T10:06:19;42.60;;;28.63;;
31760;SDS011;18335;51.486;7.562;2023-04-16T10:08:48;39.00;;;27.25;;
31760;SDS011;18335;51.486;7.562;2023-04-16T10:11:17;42.80;;;26.60;;
31760;SDS011;18335;51.486;7.562;2023-04-16T10:13:45;38.72;;;26.33;;
31760;SDS011;18335;51.486;7.562;2023-04-16T10:16:12;39.63;;;25.85;;
31760;SDS011;18335;51.486;7.562;2023-04-16T10:18:39;38.88;;;26.15;;
31760;SDS011;18335;51.486;7.562;2023-04-16T10:21:07;31.17;;;22.35;;
31760;SDS011;18335;51.486;7.562;2023-04-16T10:23:36;34.05;;;23.38;;
31760;SDS011;18335;51.486;7.562;2023-04-16T10:26:04;32.33;;;21.35;;
31760;SDS011;18335;51.486;7.562;2023-04-16T10:28:32;32.35;;;22.42;;
31760;SDS011;18335;51.486;7.562;2023-04-16T10:31:00;31.67;;;20.98;;
31760;SDS011;18335;51.486;7.562;2023-04-16T10:33:30;32.33;;;21.15;;
31760;SDS011;18335;51.486;7.562;2023-04-16T10:36:08;31.15;;;21.65;;
31760;SDS011;18335;51.486;7.562;2023-04-16T10:38:37;31.15;;;21.88;;
31760;SDS011;18335;51.486;7.562;2023-04-16T10:41:06;35.33;;;25.17;;
31760;SDS011;18335;51.486;7.562;2023-04-16T10:43:39;35.13;;;25.77;;
31760;SDS011;18335;51.486;7.562;2023-04-16T10:46:16;33.42;;;23.88;;
31760;SDS011;18335;51.486;7.562;2023-04-16T10:48:44;33.58;;;22.50;;
31760;SDS011;18335;51.486;7.562;2023-04-16T10:51:21;34.65;;;22.65;;
31760;SDS011;18335;51.486;7.562;2023-04-16T10:53:50;27.88;;;19.63;;
31760;SDS011;18335;51.486;7.562;2023-04-16T10:56:21;30.67;;;20.83;;
31760;SDS011;18335;51.486;7.562;2023-04-16T10:58:50;31.85;;;21.67;;
31760;SDS011;18335;51.486;7.562;2023-04-16T11:01:22;30.60;;;21.60;;
31760;SDS011;18335;51.486;7.562;2023-04-16T11:03:57;37.33;;;22.70;;
31760;SDS011;18335;51.486;7.562;2023-04-16T11:06:26;28.60;;;21.42;;
31760;SDS011;18335;51.486;7.562;2023-04-16T11:09:06;36.33;;;24.75;;
31760;SDS011;18335;51.486;7.562;2023-04-16T11:12:07;31.63;;;22.50;;
31760;SDS011;18335;51.486;7.562;2023-04-16T11:14:39;33.10;;;22.67;;
31760;SDS011;18335;51.486;7.562;2023-04-16T11:17:07;27.33;;;20.83;;
31760;SDS011;18335;51.486;7.562;2023-04-16T11:19:37;31.02;;;21.80;;
31760;SDS011;18335;51.486;7.562;2023-04-16T11:22:07;29.33;;;21.25;;
31760;SDS011;18335;51.486;7.562;2023-04-16T11:24:35;34.67;;;22.80;;
31760;SDS011;18335;51.486;7.562;2023-04-16T11:27:05;30.13;;;20.63;;
31760;SDS011;18335;51.486;7.562;2023-04-16T11:29:34;29.00;;;20.67;;
31760;SDS011;18335;51.486;7.562;2023-04-16T11:32:03;29.60;;;21.25;;
31760;SDS011;18335;51.486;7.562;2023-04-16T11:34:31;32.95;;;21.35;;
31760;SDS011;18335;51.486;7.562;2023-04-16T11:36:59;27.30;;;19.85;;
31760;SDS011;18335;51.486;7.562;2023-04-16T11:39:27;28.10;;;20.45;;
31760;SDS011;18335;51.486;7.562;2023-04-16T11:41:55;27.23;;;19.98;;
31760;SDS011;18335;51.486;7.562;2023-04-16T11:44:24;28.20;;;18.98;;
31760;SDS011;18335;51.486;7.562;2023-04-16T11:46:53;26.55;;;19.48;;
31760;SDS011;18335;51.486;7.562;2023-04-16T11:49:29;26.95;;;19.65;;
31760;SDS011;18335;51.486;7.562;2023-04-16T11:51:56;28.27;;;21.73;;
31760;SDS011;18335;51.486;7.562;2023-04-16T11:54:23;30.27;;;21.20;;
31760;SDS011;18335;51.486;7.562;2023-04-16T11:56:50;29.60;;;21.73;;
31760;SDS011;18335;51.486;7.562;2023-04-16T11:59:18;26.58;;;19.50;;
31760;SDS011;18335;51.486;7.562;2023-04-16T12:01:47;27.77;;;19.52;;
31760;SDS011;18335;51.486;7.562;2023-04-16T12:04:15;29.90;;;18.90;;
31760;SDS011;18335;51.486;7.562;2023-04-16T12:09:31;24.13;;;17.65;;
31760;SDS011;18335;51.486;7.562;2023-04-16T12:11:59;26.25;;;16.92;;
31760;SDS011;18335;51.486;7.562;2023-04-16T12:14:26;26.77;;;17.98;;
31760;SDS011;18335;51.486;7.562;2023-04-16T12:16:53;26.67;;;19.27;;
31760;SDS011;18335;51.486;7.562;2023-04-16T12:19:20;24.20;;;18.05;;
31760;SDS011;18335;51.486;7.562;2023-04-16T12:21:47;25.95;;;18.17;;
31760;SDS011;18335;51.486;7.562;2023-04-16T12:24:16;23.30;;;16.80;;
31760;SDS011;18335;51.486;7.562;2023-04-16T12:26:47;26.90;;;18.15;;
31760;SDS011;18335;51.486;7.562;2023-04-16T12:29:20;24.98;;;16.60;;
31760;SDS011;18335;51.486;7.562;2023-04-16T12:31:49;25.95;;;17.27;;
31760;SDS011;18335;51.486;7.562;2023-04-16T12:34:17;25.70;;;18.13;;
31760;SDS011;18335;51.486;7.562;2023-04-16T12:36:44;22.17;;;17.20;;
31760;SDS011;18335;51.486;7.562;2023-04-16T12:39:13;24.52;;;17.00;;
31760;SDS011;18335;51.486;7.562;2023-04-16T12:41:42;24.02;;;17.08;;
31760;SDS011;18335;51.486;7.562;2023-04-16T12:44:10;24.55;;;17.45;;
31760;SDS011;18335;51.486;7.562;2023-04-16T12:46:41;23.00;;;15.93;;
31760;SDS011;18335;51.486;7.562;2023-04-16T12:49:08;22.08;;;16.02;;
31760;SDS011;18335;51.486;7.562;2023-04-16T12:51:36;23.52;;;14.82;;
31760;SDS011;18335;51.486;7.562;2023-04-16T12:54:04;21.92;;;15.82;;
31760;SDS011;18335;51.486;7.562;2023-04-16T12:56:32;22.85;;;14.57;;
31760;SDS011;18335;51.486;7.562;2023-04-16T12:59:02;26.15;;;14.20;;
31760;SDS011;18335;51.486;7.562;2023-04-16T13:01:29;20.40;;;14.23;;
31760;SDS011;18335;51.486;7.562;2023-04-16T13:04:00;17.73;;;12.90;;
31760;SDS011;18335;51.486;7.562;2023-04-16T13:06:27;21.58;;;14.32;;
31760;SDS011;18335;51.486;7.562;2023-04-16T13:08:55;22.88;;;14.02;;
31760;SDS011;18335;51.486;7.562;2023-04-16T13:11:22;21.10;;;13.55;;
31760;SDS011;18335;51.486;7.562;2023-04-16T13:13:49;20.80;;;14.27;;
31760;SDS011;18335;51.486;7.562;2023-04-16T13:16:17;20.85;;;13.90;;
31760;SDS011;18335;51.486;7.562;2023-04-16T13:18:43;21.33;;;13.70;;
31760;SDS011;18335;51.486;7.562;2023-04-16T13:21:10;26.65;;;16.80;;
31760;SDS011;18335;51.486;7.562;2023-04-16T13:23:37;25.63;;;14.95;;
31760;SDS011;18335;51.486;7.562;2023-04-16T13:26:04;26.90;;;17.88;;
31760;SDS011;18335;51.486;7.562;2023-04-16T13:28:31;23.17;;;16.08;;
31760;SDS011;18335;51.486;7.562;2023-04-16T13:30:57;23.95;;;16.10;;
31760;SDS011;18335;51.486;7.562;2023-04-16T13:33:26;21.48;;;15.35;;
31760;SDS011;18335;51.486;7.562;2023-04-16T13:35:53;22.40;;;15.95;;
31760;SDS011;18335;51.486;7.562;2023-04-16T13:38:20;23.98;;;16.48;;
31760;SDS011;18335;51.486;7.562;2023-04-16T13:40:47;23.73;;;15.60;;
31760;SDS011;18335;51.486;7.562;2023-04-16T13:43:14;22.60;;;14.93;;
31760;SDS011;18335;51.486;7.562;2023-04-16T13:45:43;25.25;;;15.02;;
31760;SDS011;18335;51.486;7.562;2023-04-16T13:48:10;23.95;;;15.35;;
31760;SDS011;18335;51.486;7.562;2023-04-16T13:50:38;24.92;;;15.57;;
31760;SDS011;18335;51.486;7.562;2023-04-16T13:53:05;19.95;;;13.48;;
31760;SDS011;18335;51.486;7.562;2023-04-16T13:55:32;22.95;;;15.55;;
31760;SDS011;18335;51.486;7.562;2023-04-16T13:57:59;21.55;;;14.65;;
31760;SDS011;18335;51.486;7.562;2023-04-16T14:00:25;23.85;;;15.27;;
31760;SDS011;18335;51.486;7.562;2023-04-16T14:02:52;21.15;;;15.10;;
31760;SDS011;18335;51.486;7.562;2023-04-16T14:05:19;23.60;;;15.30;;
31760;SDS011;18335;51.486;7.562;2023-04-16T14:07:48;20.63;;;15.35;;
31760;SDS011;18335;51.486;7.562;2023-04-16T14:10:16;23.65;;;16.00;;
31760;SDS011;18335;51.486;7.562;2023-04-16T14:12:43;20.83;;;13.88;;
31760;SDS011;18335;51.486;7.562;2023-04-16T14:15:10;22.15;;;14.48;;
31760;SDS011;18335;51.486;7.562;2023-04-16T14:17:39;22.60;;;15.38;;
31760;SDS011;18335;51.486;7.562;2023-04-16T14:20:07;23.92;;;15.32;;
31760;SDS011;18335;51.486;7.562;2023-04-16T14:22:34;22.25;;;14.07;;
31760;SDS011;18335;51.486;7.562;2023-04-16T14:25:03;18.90;;;12.68;;
31760;SDS011;18335;51.486;7.562;2023-04-16T14:27:30;18.75;;;12.00;;